sensor_id;sensor_type;location;lat;lon;timestamp;P1;durP1;ratioP1;P2;durP2;ratioP2
54037;SDS011;39954;48.844;9.726;2023-04-15T00:00:33;268.52;;;18.13;;
54037;SDS011;39954;48.844;9.726;2023-04-15T00:01:38;245.85;;;16.67;;
54037;SDS011;39954;48.844;9.726;2023-04-15T00:02:40;251.38;;;17.17;;
54037;SDS011;39954;48.844;9.726;2023-04-15T00:03:45;284.98;;;19.50;;
54037;SDS011;39954;48.844;9.726;2023-04-15T00:04:48;260.85;;;18.13;;
54037;SDS011;39954;48.844;9.726;2023-04-15T00:05:53;275.92;;;19.38;;
54037;SDS011;39954;48.844;9.726;2023-04-15T00:06:55;302.92;;;20.58;;
54037;SDS011;39954;48.844;9.726;2023-04-15T00:08:00;200.45;;;14.15;;
54037;SDS011;39954;48.844;9.726;2023-04-15T00:09:05;227.25;;;15.68;;
54037;SDS011;39954;48.844;9.726;2023-04-15T00:10:10;230.20;;;16.17;;
54037;SDS011;39954;48.844;9.726;2023-04-15T00:11:12;243.98;;;17.38;;
54037;SDS011;39954;48.844;9.726;2023-04-15T00:12:20;228.23;;;15.82;;
54037;SDS011;39954;48.844;9.726;2023-04-15T00:13:22;214.30;;;15.48;;
54037;SDS011;39954;48.844;9.726;2023-04-15T00:14:28;205.93;;;14.70;;
54037;SDS011;39954;48.844;9.726;2023-04-15T00:15:31;204.38;;;14.80;;
54037;SDS011;39954;48.844;9.726;2023-04-15T00:16:35;209.75;;;15.25;;
54037;SDS011;39954;48.844;9.726;2023-04-15T00:17:37;227.10;;;16.05;;
54037;SDS011;39954;48.844;9.726;2023-04-15T00:18:43;190.85;;;14.43;;
54037;SDS011;39954;48.844;9.726;2023-04-15T00:19:46;213.48;;;15.60;;
54037;SDS011;39954;48.844;9.726;2023-04-15T00:20:54;186.63;;;14.25;;
54037;SDS011;39954;48.844;9.726;2023-04-15T00:21:56;251.95;;;17.52;;
54037;SDS011;39954;48.844;9.726;2023-04-15T00:23:01;211.50;;;15.60;;
54037;SDS011;39954;48.844;9.726;2023-04-15T00:24:08;264.65;;;18.50;;
54037;SDS011;39954;48.844;9.726;2023-04-15T00:25:10;181.75;;;13.55;;
54037;SDS011;39954;48.844;9.726;2023-04-15T00:26:15;202.48;;;14.60;;
54037;SDS011;39954;48.844;9.726;2023-04-15T00:27:18;191.35;;;13.75;;
54037;SDS011;39954;48.844;9.726;2023-04-15T00:28:22;204.60;;;14.63;;
54037;SDS011;39954;48.844;9.726;2023-04-15T00:29:24;237.70;;;16.52;;
54037;SDS011;39954;48.844;9.726;2023-04-15T00:30:29;214.07;;;15.23;;
54037;SDS011;39954;48.844;9.726;2023-04-15T00:31:32;288.33;;;20.13;;
54037;SDS011;39954;48.844;9.726;2023-04-15T00:32:36;201.77;;;14.88;;
54037;SDS011;39954;48.844;9.726;2023-04-15T00:33:42;212.18;;;15.25;;
54037;SDS011;39954;48.844;9.726;2023-04-15T00:34:45;208.93;;;15.32;;
54037;SDS011;39954;48.844;9.726;2023-04-15T00:35:50;199.15;;;15.00;;
54037;SDS011;39954;48.844;9.726;2023-04-15T00:36:52;199.50;;;14.85;;
54037;SDS011;39954;48.844;9.726;2023-04-15T00:37:57;199.15;;;14.98;;
54037;SDS011;39954;48.844;9.726;2023-04-15T00:38:59;227.40;;;16.23;;
54037;SDS011;39954;48.844;9.726;2023-04-15T00:40:07;196.63;;;14.27;;
54037;SDS011;39954;48.844;9.726;2023-04-15T00:41:16;198.90;;;14.77;;
54037;SDS011;39954;48.844;9.726;2023-04-15T00:42:19;208.85;;;15.38;;
54037;SDS011;39954;48.844;9.726;2023-04-15T00:43:24;210.77;;;15.27;;
54037;SDS011;39954;48.844;9.726;2023-04-15T00:44:27;239.02;;;17.15;;
54037;SDS011;39954;48.844;9.726;2023-04-15T00:45:31;229.32;;;16.45;;
54037;SDS011;39954;48.844;9.726;2023-04-15T00:46:34;257.85;;;17.35;;
54037;SDS011;39954;48.844;9.726;2023-04-15T00:47:40;223.50;;;15.50;;
54037;SDS011;39954;48.844;9.726;2023-04-15T00:48:43;185.68;;;13.52;;
54037;SDS011;39954;48.844;9.726;2023-04-15T00:49:48;231.85;;;16.23;;
54037;SDS011;39954;48.844;9.726;2023-04-15T00:50:50;258.25;;;18.20;;
54037;SDS011;39954;48.844;9.726;2023-04-15T00:51:55;191.40;;;14.52;;
54037;SDS011;39954;48.844;9.726;2023-04-15T00:52:57;230.68;;;16.45;;
54037;SDS011;39954;48.844;9.726;2023-04-15T00:54:02;226.20;;;15.70;;
54037;SDS011;39954;48.844;9.726;2023-04-15T00:55:08;199.68;;;14.18;;
54037;SDS011;39954;48.844;9.726;2023-04-15T00:56:13;218.93;;;14.77;;
54037;SDS011;39954;48.844;9.726;2023-04-15T00:57:16;202.55;;;13.63;;
54037;SDS011;39954;48.844;9.726;2023-04-15T00:58:22;248.77;;;16.17;;
54037;SDS011;39954;48.844;9.726;2023-04-15T00:59:24;250.32;;;16.33;;
54037;SDS011;39954;48.844;9.726;2023-04-15T01:00:29;235.35;;;15.52;;
54037;SDS011;39954;48.844;9.726;2023-04-15T01:01:32;223.40;;;14.90;;
54037;SDS011;39954;48.844;9.726;2023-04-15T01:02:39;305.38;;;19.65;;
54037;SDS011;39954;48.844;9.726;2023-04-15T01:03:41;255.20;;;17.08;;
54037;SDS011;39954;48.844;9.726;2023-04-15T01:04:46;242.98;;;16.23;;
54037;SDS011;39954;48.844;9.726;2023-04-15T01:05:48;218.88;;;15.02;;
54037;SDS011;39954;48.844;9.726;2023-04-15T01:06:58;247.75;;;16.77;;
54037;SDS011;39954;48.844;9.726;2023-04-15T01:08:01;215.07;;;15.10;;
54037;SDS011;39954;48.844;9.726;2023-04-15T01:09:06;179.18;;;12.75;;
54037;SDS011;39954;48.844;9.726;2023-04-15T01:10:10;227.70;;;16.23;;
54037;SDS011;39954;48.844;9.726;2023-04-15T01:11:15;198.98;;;13.52;;
54037;SDS011;39954;48.844;9.726;2023-04-15T01:12:20;182.88;;;12.93;;
54037;SDS011;39954;48.844;9.726;2023-04-15T01:13:23;187.90;;;13.05;;
54037;SDS011;39954;48.844;9.726;2023-04-15T01:14:28;210.68;;;14.40;;
54037;SDS011;39954;48.844;9.726;2023-04-15T01:15:31;200.52;;;14.23;;
54037;SDS011;39954;48.844;9.726;2023-04-15T01:16:36;199.65;;;14.32;;
54037;SDS011;39954;48.844;9.726;2023-04-15T01:17:40;209.38;;;14.45;;
54037;SDS011;39954;48.844;9.726;2023-04-15T01:18:45;224.82;;;15.55;;
54037;SDS011;39954;48.844;9.726;2023-04-15T01:19:47;180.23;;;13.55;;
54037;SDS011;39954;48.844;9.726;2023-04-15T01:20:52;208.18;;;14.57;;
54037;SDS011;39954;48.844;9.726;2023-04-15T01:21:54;198.00;;;14.27;;
54037;SDS011;39954;48.844;9.726;2023-04-15T01:22:59;247.00;;;16.98;;
54037;SDS011;39954;48.844;9.726;2023-04-15T01:24:03;356.48;;;23.88;;
54037;SDS011;39954;48.844;9.726;2023-04-15T01:25:16;345.13;;;23.42;;
54037;SDS011;39954;48.844;9.726;2023-04-15T01:26:22;270.00;;;18.83;;
54037;SDS011;39954;48.844;9.726;2023-04-15T01:27:27;217.50;;;15.65;;
54037;SDS011;39954;48.844;9.726;2023-04-15T01:28:30;225.13;;;15.75;;
54037;SDS011;39954;48.844;9.726;2023-04-15T01:29:36;307.23;;;20.67;;
54037;SDS011;39954;48.844;9.726;2023-04-15T01:30:39;292.15;;;19.10;;
54037;SDS011;39954;48.844;9.726;2023-04-15T01:31:48;170.15;;;13.02;;
54037;SDS011;39954;48.844;9.726;2023-04-15T01:32:51;193.02;;;13.88;;
54037;SDS011;39954;48.844;9.726;2023-04-15T01:33:57;205.77;;;14.48;;
54037;SDS011;39954;48.844;9.726;2023-04-15T01:34:59;233.73;;;17.48;;
54037;SDS011;39954;48.844;9.726;2023-04-15T01:36:04;223.93;;;15.60;;
54037;SDS011;39954;48.844;9.726;2023-04-15T01:37:09;156.15;;;12.05;;
54037;SDS011;39954;48.844;9.726;2023-04-15T01:38:13;218.50;;;15.15;;
54037;SDS011;39954;48.844;9.726;2023-04-15T01:39:15;195.05;;;14.20;;
54037;SDS011;39954;48.844;9.726;2023-04-15T01:40:20;209.18;;;14.27;;
54037;SDS011;39954;48.844;9.726;2023-04-15T01:41:31;77.28;;;6.90;;
54037;SDS011;39954;48.844;9.726;2023-04-15T01:42:36;264.92;;;17.52;;
54037;SDS011;39954;48.844;9.726;2023-04-15T01:43:38;264.10;;;17.65;;
54037;SDS011;39954;48.844;9.726;2023-04-15T01:44:43;240.30;;;15.65;;
54037;SDS011;39954;48.844;9.726;2023-04-15T01:45:45;253.85;;;16.48;;
54037;SDS011;39954;48.844;9.726;2023-04-15T01:46:50;264.33;;;18.25;;
54037;SDS011;39954;48.844;9.726;2023-04-15T01:47:52;234.25;;;15.30;;
54037;SDS011;39954;48.844;9.726;2023-04-15T01:48:57;262.42;;;17.40;;
54037;SDS011;39954;48.844;9.726;2023-04-15T01:49:59;292.88;;;18.80;;
54037;SDS011;39954;48.844;9.726;2023-04-15T01:51:04;268.77;;;17.33;;
54037;SDS011;39954;48.844;9.726;2023-04-15T01:52:06;251.55;;;16.60;;
54037;SDS011;39954;48.844;9.726;2023-04-15T01:53:11;242.43;;;15.68;;
54037;SDS011;39954;48.844;9.726;2023-04-15T01:54:13;215.18;;;14.02;;
54037;SDS011;39954;48.844;9.726;2023-04-15T01:55:17;240.23;;;15.32;;
54037;SDS011;39954;48.844;9.726;2023-04-15T01:56:20;221.73;;;15.60;;
54037;SDS011;39954;48.844;9.726;2023-04-15T01:57:27;204.98;;;13.68;;
54037;SDS011;39954;48.844;9.726;2023-04-15T01:58:29;209.95;;;14.13;;
54037;SDS011;39954;48.844;9.726;2023-04-15T01:59:34;227.43;;;20.92;;
54037;SDS011;39954;48.844;9.726;2023-04-15T02:00:36;228.93;;;15.48;;
54037;SDS011;39954;48.844;9.726;2023-04-15T02:01:41;220.52;;;14.90;;
54037;SDS011;39954;48.844;9.726;2023-04-15T02:02:43;260.40;;;32.08;;
54037;SDS011;39954;48.844;9.726;2023-04-15T02:03:48;229.05;;;28.88;;
54037;SDS011;39954;48.844;9.726;2023-04-15T02:04:50;248.02;;;28.05;;
54037;SDS011;39954;48.844;9.726;2023-04-15T02:05:56;254.48;;;21.65;;
54037;SDS011;39954;48.844;9.726;2023-04-15T02:06:58;245.82;;;18.30;;
54037;SDS011;39954;48.844;9.726;2023-04-15T02:08:02;241.98;;;19.65;;
54037;SDS011;39954;48.844;9.726;2023-04-15T02:09:05;256.90;;;24.17;;
54037;SDS011;39954;48.844;9.726;2023-04-15T02:10:09;260.50;;;21.02;;
54037;SDS011;39954;48.844;9.726;2023-04-15T02:11:13;212.00;;;17.73;;
54037;SDS011;39954;48.844;9.726;2023-04-15T02:12:18;251.88;;;33.40;;
54037;SDS011;39954;48.844;9.726;2023-04-15T02:13:23;253.70;;;58.53;;
54037;SDS011;39954;48.844;9.726;2023-04-15T02:14:28;345.08;;;99.35;;
54037;SDS011;39954;48.844;9.726;2023-04-15T02:15:30;208.50;;;15.23;;
54037;SDS011;39954;48.844;9.726;2023-04-15T02:16:34;225.93;;;15.10;;
54037;SDS011;39954;48.844;9.726;2023-04-15T02:17:37;189.60;;;13.05;;
54037;SDS011;39954;48.844;9.726;2023-04-15T02:18:46;209.35;;;14.45;;
54037;SDS011;39954;48.844;9.726;2023-04-15T02:19:48;256.67;;;17.63;;
54037;SDS011;39954;48.844;9.726;2023-04-15T02:20:53;227.40;;;16.20;;
54037;SDS011;39954;48.844;9.726;2023-04-15T02:21:56;276.52;;;19.17;;
54037;SDS011;39954;48.844;9.726;2023-04-15T02:23:00;327.10;;;29.45;;
54037;SDS011;39954;48.844;9.726;2023-04-15T02:24:03;419.42;;;28.50;;
54037;SDS011;39954;48.844;9.726;2023-04-15T02:25:08;288.00;;;20.70;;
54037;SDS011;39954;48.844;9.726;2023-04-15T02:26:10;217.57;;;16.17;;
54037;SDS011;39954;48.844;9.726;2023-04-15T02:27:15;214.25;;;15.70;;
54037;SDS011;39954;48.844;9.726;2023-04-15T02:28:18;209.52;;;15.23;;
54037;SDS011;39954;48.844;9.726;2023-04-15T02:29:25;240.30;;;17.23;;
54037;SDS011;39954;48.844;9.726;2023-04-15T02:30:27;261.23;;;18.75;;
54037;SDS011;39954;48.844;9.726;2023-04-15T02:31:32;232.40;;;17.48;;
54037;SDS011;39954;48.844;9.726;2023-04-15T02:34:26;202.90;;;15.52;;
54037;SDS011;39954;48.844;9.726;2023-04-15T02:35:32;279.13;;;19.92;;
54037;SDS011;39954;48.844;9.726;2023-04-15T02:36:34;203.77;;;15.40;;
54037;SDS011;39954;48.844;9.726;2023-04-15T02:37:39;210.57;;;15.60;;
54037;SDS011;39954;48.844;9.726;2023-04-15T02:38:44;268.52;;;19.10;;
54037;SDS011;39954;48.844;9.726;2023-04-15T02:39:49;219.35;;;16.42;;
54037;SDS011;39954;48.844;9.726;2023-04-15T02:40:51;197.70;;;15.57;;
54037;SDS011;39954;48.844;9.726;2023-04-15T02:41:55;297.20;;;22.25;;
54037;SDS011;39954;48.844;9.726;2023-04-15T02:42:59;234.40;;;17.23;;
54037;SDS011;39954;48.844;9.726;2023-04-15T02:44:05;235.52;;;17.58;;
54037;SDS011;39954;48.844;9.726;2023-04-15T02:45:14;255.57;;;18.27;;
54037;SDS011;39954;48.844;9.726;2023-04-15T02:46:21;205.43;;;15.65;;
54037;SDS011;39954;48.844;9.726;2023-04-15T02:47:23;272.83;;;19.88;;
54037;SDS011;39954;48.844;9.726;2023-04-15T02:48:28;309.77;;;49.17;;
54037;SDS011;39954;48.844;9.726;2023-04-15T02:49:30;357.08;;;127.85;;
54037;SDS011;39954;48.844;9.726;2023-04-15T02:50:35;284.38;;;21.95;;
54037;SDS011;39954;48.844;9.726;2023-04-15T02:51:38;183.80;;;15.27;;
54037;SDS011;39954;48.844;9.726;2023-04-15T02:52:42;172.38;;;14.65;;
54037;SDS011;39954;48.844;9.726;2023-04-15T02:53:45;231.55;;;18.25;;
54037;SDS011;39954;48.844;9.726;2023-04-15T02:54:50;155.95;;;13.15;;
54037;SDS011;39954;48.844;9.726;2023-04-15T02:55:52;154.75;;;13.05;;
54037;SDS011;39954;48.844;9.726;2023-04-15T02:57:00;172.02;;;15.27;;
54037;SDS011;39954;48.844;9.726;2023-04-15T02:58:02;189.35;;;15.82;;
54037;SDS011;39954;48.844;9.726;2023-04-15T02:59:07;169.88;;;14.77;;
54037;SDS011;39954;48.844;9.726;2023-04-15T03:00:10;194.45;;;16.48;;
54037;SDS011;39954;48.844;9.726;2023-04-15T03:01:18;160.32;;;13.93;;
54037;SDS011;39954;48.844;9.726;2023-04-15T03:02:21;172.10;;;14.77;;
54037;SDS011;39954;48.844;9.726;2023-04-15T03:03:26;196.73;;;16.13;;
54037;SDS011;39954;48.844;9.726;2023-04-15T03:04:29;179.77;;;15.07;;
54037;SDS011;39954;48.844;9.726;2023-04-15T03:05:33;185.85;;;16.38;;
54037;SDS011;39954;48.844;9.726;2023-04-15T03:06:39;217.73;;;17.52;;
54037;SDS011;39954;48.844;9.726;2023-04-15T03:07:41;202.68;;;16.67;;
54037;SDS011;39954;48.844;9.726;2023-04-15T03:08:46;187.75;;;15.55;;
54037;SDS011;39954;48.844;9.726;2023-04-15T03:09:48;218.90;;;17.80;;
54037;SDS011;39954;48.844;9.726;2023-04-15T03:10:53;155.77;;;14.10;;
54037;SDS011;39954;48.844;9.726;2023-04-15T03:11:55;226.57;;;17.67;;
54037;SDS011;39954;48.844;9.726;2023-04-15T03:13:00;252.43;;;19.85;;
54037;SDS011;39954;48.844;9.726;2023-04-15T03:14:02;221.13;;;17.92;;
54037;SDS011;39954;48.844;9.726;2023-04-15T03:15:07;223.48;;;18.23;;
54037;SDS011;39954;48.844;9.726;2023-04-15T03:16:10;239.20;;;19.10;;
54037;SDS011;39954;48.844;9.726;2023-04-15T03:17:18;174.82;;;14.38;;
54037;SDS011;39954;48.844;9.726;2023-04-15T03:18:20;192.15;;;16.20;;
54037;SDS011;39954;48.844;9.726;2023-04-15T03:19:25;196.52;;;16.80;;
54037;SDS011;39954;48.844;9.726;2023-04-15T03:20:27;158.27;;;13.95;;
54037;SDS011;39954;48.844;9.726;2023-04-15T03:21:32;171.40;;;15.07;;
54037;SDS011;39954;48.844;9.726;2023-04-15T03:22:34;154.52;;;13.88;;
54037;SDS011;39954;48.844;9.726;2023-04-15T03:23:38;172.13;;;15.30;;
54037;SDS011;39954;48.844;9.726;2023-04-15T03:24:40;171.90;;;16.05;;
54037;SDS011;39954;48.844;9.726;2023-04-15T03:25:45;487.20;;;37.50;;
54037;SDS011;39954;48.844;9.726;2023-04-15T03:26:47;155.63;;;13.63;;
54037;SDS011;39954;48.844;9.726;2023-04-15T03:27:52;155.00;;;13.52;;
54037;SDS011;39954;48.844;9.726;2023-04-15T03:28:54;142.95;;;13.27;;
54037;SDS011;39954;48.844;9.726;2023-04-15T03:30:00;176.70;;;15.38;;
54037;SDS011;39954;48.844;9.726;2023-04-15T03:31:02;178.52;;;15.38;;
54037;SDS011;39954;48.844;9.726;2023-04-15T03:32:07;176.10;;;14.93;;
54037;SDS011;39954;48.844;9.726;2023-04-15T03:33:11;173.70;;;14.90;;
54037;SDS011;39954;48.844;9.726;2023-04-15T03:34:16;123.57;;;12.27;;
54037;SDS011;39954;48.844;9.726;2023-04-15T03:35:18;133.30;;;12.93;;
54037;SDS011;39954;48.844;9.726;2023-04-15T03:36:23;166.35;;;15.00;;
54037;SDS011;39954;48.844;9.726;2023-04-15T03:37:27;176.63;;;15.15;;
54037;SDS011;39954;48.844;9.726;2023-04-15T03:38:30;169.85;;;14.13;;
54037;SDS011;39954;48.844;9.726;2023-04-15T03:39:34;174.55;;;14.82;;
54037;SDS011;39954;48.844;9.726;2023-04-15T03:40:37;139.85;;;12.43;;
54037;SDS011;39954;48.844;9.726;2023-04-15T03:41:42;162.30;;;13.65;;
54037;SDS011;39954;48.844;9.726;2023-04-15T03:42:44;178.93;;;15.25;;
54037;SDS011;39954;48.844;9.726;2023-04-15T03:43:48;131.43;;;11.75;;
54037;SDS011;39954;48.844;9.726;2023-04-15T03:44:52;133.23;;;11.98;;
54037;SDS011;39954;48.844;9.726;2023-04-15T03:45:57;188.38;;;14.52;;
54037;SDS011;39954;48.844;9.726;2023-04-15T03:47:02;177.50;;;14.38;;
54037;SDS011;39954;48.844;9.726;2023-04-15T03:48:06;202.50;;;15.35;;
54037;SDS011;39954;48.844;9.726;2023-04-15T03:49:20;168.95;;;14.00;;
54037;SDS011;39954;48.844;9.726;2023-04-15T03:50:26;213.18;;;17.30;;
54037;SDS011;39954;48.844;9.726;2023-04-15T03:51:28;164.25;;;14.27;;
54037;SDS011;39954;48.844;9.726;2023-04-15T03:52:32;155.93;;;13.15;;
54037;SDS011;39954;48.844;9.726;2023-04-15T03:53:35;172.60;;;14.55;;
54037;SDS011;39954;48.844;9.726;2023-04-15T03:54:39;173.18;;;14.35;;
54037;SDS011;39954;48.844;9.726;2023-04-15T03:55:41;169.15;;;14.55;;
54037;SDS011;39954;48.844;9.726;2023-04-15T03:56:47;139.05;;;12.18;;
54037;SDS011;39954;48.844;9.726;2023-04-15T03:57:49;138.25;;;12.57;;
54037;SDS011;39954;48.844;9.726;2023-04-15T03:58:53;143.95;;;12.32;;
54037;SDS011;39954;48.844;9.726;2023-04-15T03:59:56;152.60;;;13.60;;
54037;SDS011;39954;48.844;9.726;2023-04-15T04:01:00;174.00;;;13.95;;
54037;SDS011;39954;48.844;9.726;2023-04-15T04:02:02;189.13;;;15.77;;
54037;SDS011;39954;48.844;9.726;2023-04-15T04:03:07;187.38;;;14.55;;
54037;SDS011;39954;48.844;9.726;2023-04-15T04:04:10;163.85;;;13.55;;
54037;SDS011;39954;48.844;9.726;2023-04-15T04:05:17;172.77;;;15.23;;
54037;SDS011;39954;48.844;9.726;2023-04-15T04:06:19;128.65;;;12.18;;
54037;SDS011;39954;48.844;9.726;2023-04-15T04:07:24;122.07;;;11.45;;
54037;SDS011;39954;48.844;9.726;2023-04-15T04:08:26;155.25;;;15.00;;
54037;SDS011;39954;48.844;9.726;2023-04-15T04:09:31;119.90;;;12.90;;
54037;SDS011;39954;48.844;9.726;2023-04-15T04:10:33;97.20;;;10.93;;
54037;SDS011;39954;48.844;9.726;2023-04-15T04:11:38;161.15;;;15.40;;
54037;SDS011;39954;48.844;9.726;2023-04-15T04:12:40;104.28;;;11.30;;
54037;SDS011;39954;48.844;9.726;2023-04-15T04:13:44;116.68;;;12.32;;
54037;SDS011;39954;48.844;9.726;2023-04-15T04:14:46;121.78;;;12.43;;
54037;SDS011;39954;48.844;9.726;2023-04-15T04:15:51;109.60;;;12.07;;
54037;SDS011;39954;48.844;9.726;2023-04-15T04:16:54;102.93;;;11.63;;
54037;SDS011;39954;48.844;9.726;2023-04-15T04:18:24;107.60;;;12.10;;
54037;SDS011;39954;48.844;9.726;2023-04-15T04:19:29;117.22;;;12.85;;
54037;SDS011;39954;48.844;9.726;2023-04-15T04:20:34;109.72;;;12.10;;
54037;SDS011;39954;48.844;9.726;2023-04-15T04:21:39;124.30;;;12.95;;
54037;SDS011;39954;48.844;9.726;2023-04-15T04:22:41;131.35;;;13.13;;
54037;SDS011;39954;48.844;9.726;2023-04-15T04:23:46;124.20;;;12.43;;
54037;SDS011;39954;48.844;9.726;2023-04-15T04:24:48;167.40;;;13.57;;
54037;SDS011;39954;48.844;9.726;2023-04-15T04:25:53;395.23;;;28.95;;
54037;SDS011;39954;48.844;9.726;2023-04-15T04:26:55;186.70;;;15.20;;
54037;SDS011;39954;48.844;9.726;2023-04-15T04:28:00;184.25;;;15.02;;
54037;SDS011;39954;48.844;9.726;2023-04-15T04:29:02;225.75;;;17.63;;
54037;SDS011;39954;48.844;9.726;2023-04-15T04:30:07;206.88;;;16.08;;
54037;SDS011;39954;48.844;9.726;2023-04-15T04:31:09;192.82;;;15.23;;
54037;SDS011;39954;48.844;9.726;2023-04-15T04:32:15;219.40;;;16.15;;
54037;SDS011;39954;48.844;9.726;2023-04-15T04:33:17;164.10;;;13.18;;
54037;SDS011;39954;48.844;9.726;2023-04-15T04:34:22;174.77;;;14.40;;
54037;SDS011;39954;48.844;9.726;2023-04-15T04:35:24;170.60;;;14.35;;
54037;SDS011;39954;48.844;9.726;2023-04-15T04:36:31;211.20;;;16.25;;
54037;SDS011;39954;48.844;9.726;2023-04-15T04:37:33;182.75;;;14.98;;
54037;SDS011;39954;48.844;9.726;2023-04-15T04:38:38;247.88;;;18.63;;
54037;SDS011;39954;48.844;9.726;2023-04-15T04:39:40;194.35;;;15.32;;
54037;SDS011;39954;48.844;9.726;2023-04-15T04:40:44;181.15;;;14.88;;
54037;SDS011;39954;48.844;9.726;2023-04-15T04:41:47;187.23;;;14.85;;
54037;SDS011;39954;48.844;9.726;2023-04-15T04:42:52;187.60;;;15.35;;
54037;SDS011;39954;48.844;9.726;2023-04-15T04:43:54;153.98;;;13.35;;
54037;SDS011;39954;48.844;9.726;2023-04-15T04:44:59;176.82;;;14.55;;
54037;SDS011;39954;48.844;9.726;2023-04-15T04:46:01;160.85;;;13.68;;
54037;SDS011;39954;48.844;9.726;2023-04-15T04:47:06;226.98;;;17.65;;
54037;SDS011;39954;48.844;9.726;2023-04-15T04:48:08;186.45;;;15.00;;
54037;SDS011;39954;48.844;9.726;2023-04-15T04:49:13;210.65;;;17.15;;
54037;SDS011;39954;48.844;9.726;2023-04-15T04:50:16;193.55;;;16.17;;
54037;SDS011;39954;48.844;9.726;2023-04-15T04:51:21;183.52;;;16.20;;
54037;SDS011;39954;48.844;9.726;2023-04-15T04:52:29;193.70;;;15.75;;
54037;SDS011;39954;48.844;9.726;2023-04-15T04:53:31;196.98;;;15.80;;
54037;SDS011;39954;48.844;9.726;2023-04-15T04:54:36;191.07;;;15.32;;
54037;SDS011;39954;48.844;9.726;2023-04-15T04:55:38;159.40;;;13.70;;
54037;SDS011;39954;48.844;9.726;2023-04-15T04:56:43;187.13;;;15.55;;
54037;SDS011;39954;48.844;9.726;2023-04-15T04:57:45;177.43;;;15.38;;
54037;SDS011;39954;48.844;9.726;2023-04-15T04:58:50;206.50;;;16.25;;
54037;SDS011;39954;48.844;9.726;2023-04-15T04:59:52;197.48;;;16.23;;
54037;SDS011;39954;48.844;9.726;2023-04-15T05:00:57;176.23;;;15.30;;
54037;SDS011;39954;48.844;9.726;2023-04-15T05:01:59;218.20;;;17.58;;
54037;SDS011;39954;48.844;9.726;2023-04-15T05:03:04;228.57;;;18.52;;
54037;SDS011;39954;48.844;9.726;2023-04-15T05:04:06;228.80;;;18.83;;
54037;SDS011;39954;48.844;9.726;2023-04-15T05:05:11;304.40;;;23.25;;
54037;SDS011;39954;48.844;9.726;2023-04-15T05:06:14;217.55;;;17.92;;
54037;SDS011;39954;48.844;9.726;2023-04-15T05:07:18;187.80;;;15.55;;
54037;SDS011;39954;48.844;9.726;2023-04-15T05:08:24;243.05;;;18.90;;
54037;SDS011;39954;48.844;9.726;2023-04-15T05:09:28;208.52;;;16.33;;
54037;SDS011;39954;48.844;9.726;2023-04-15T05:10:32;205.15;;;16.15;;
54037;SDS011;39954;48.844;9.726;2023-04-15T05:11:37;259.27;;;19.73;;
54037;SDS011;39954;48.844;9.726;2023-04-15T05:12:39;214.90;;;17.67;;
54037;SDS011;39954;48.844;9.726;2023-04-15T05:13:44;232.95;;;17.45;;
54037;SDS011;39954;48.844;9.726;2023-04-15T05:14:46;230.43;;;18.33;;
54037;SDS011;39954;48.844;9.726;2023-04-15T05:15:51;175.88;;;16.30;;
54037;SDS011;39954;48.844;9.726;2023-04-15T05:16:55;222.25;;;18.15;;
54037;SDS011;39954;48.844;9.726;2023-04-15T05:17:58;266.83;;;23.35;;
54037;SDS011;39954;48.844;9.726;2023-04-15T05:19:02;255.32;;;22.33;;
54037;SDS011;39954;48.844;9.726;2023-04-15T05:20:05;171.43;;;21.52;;
54037;SDS011;39954;48.844;9.726;2023-04-15T05:21:12;153.30;;;23.60;;
54037;SDS011;39954;48.844;9.726;2023-04-15T05:22:14;147.23;;;24.17;;
54037;SDS011;39954;48.844;9.726;2023-04-15T05:23:19;124.72;;;21.27;;
54037;SDS011;39954;48.844;9.726;2023-04-15T05:24:26;140.80;;;22.17;;
54037;SDS011;39954;48.844;9.726;2023-04-15T05:25:29;199.55;;;28.67;;
54037;SDS011;39954;48.844;9.726;2023-04-15T05:26:35;120.80;;;22.25;;
54037;SDS011;39954;48.844;9.726;2023-04-15T05:27:37;128.73;;;22.80;;
54037;SDS011;39954;48.844;9.726;2023-04-15T05:28:42;90.13;;;20.15;;
54037;SDS011;39954;48.844;9.726;2023-04-15T05:29:44;106.70;;;22.77;;
54037;SDS011;39954;48.844;9.726;2023-04-15T05:30:49;86.03;;;21.30;;
54037;SDS011;39954;48.844;9.726;2023-04-15T05:31:51;89.25;;;21.33;;
54037;SDS011;39954;48.844;9.726;2023-04-15T05:32:56;87.25;;;22.60;;
54037;SDS011;39954;48.844;9.726;2023-04-15T05:33:58;102.50;;;23.90;;
54037;SDS011;39954;48.844;9.726;2023-04-15T05:35:04;94.28;;;21.23;;
54037;SDS011;39954;48.844;9.726;2023-04-15T05:36:09;102.68;;;20.55;;
54037;SDS011;39954;48.844;9.726;2023-04-15T05:37:12;106.57;;;20.05;;
54037;SDS011;39954;48.844;9.726;2023-04-15T05:38:17;86.88;;;18.13;;
54037;SDS011;39954;48.844;9.726;2023-04-15T05:39:19;75.57;;;16.50;;
54037;SDS011;39954;48.844;9.726;2023-04-15T05:40:26;102.07;;;17.98;;
54037;SDS011;39954;48.844;9.726;2023-04-15T05:41:29;89.47;;;16.30;;
54037;SDS011;39954;48.844;9.726;2023-04-15T05:42:33;90.57;;;16.13;;
54037;SDS011;39954;48.844;9.726;2023-04-15T05:43:36;82.55;;;15.82;;
54037;SDS011;39954;48.844;9.726;2023-04-15T05:44:40;103.55;;;16.42;;
54037;SDS011;39954;48.844;9.726;2023-04-15T05:45:42;102.18;;;16.35;;
54037;SDS011;39954;48.844;9.726;2023-04-15T05:46:47;94.53;;;16.02;;
54037;SDS011;39954;48.844;9.726;2023-04-15T05:47:52;81.22;;;14.35;;
54037;SDS011;39954;48.844;9.726;2023-04-15T05:48:54;104.00;;;17.17;;
54037;SDS011;39954;48.844;9.726;2023-04-15T05:49:59;87.45;;;14.57;;
54037;SDS011;39954;48.844;9.726;2023-04-15T05:51:02;92.68;;;15.02;;
54037;SDS011;39954;48.844;9.726;2023-04-15T05:52:07;98.97;;;16.13;;
54037;SDS011;39954;48.844;9.726;2023-04-15T05:53:09;94.10;;;15.50;;
54037;SDS011;39954;48.844;9.726;2023-04-15T05:54:13;87.10;;;14.40;;
54037;SDS011;39954;48.844;9.726;2023-04-15T05:55:17;112.18;;;16.77;;
54037;SDS011;39954;48.844;9.726;2023-04-15T05:56:25;69.28;;;12.60;;
54037;SDS011;39954;48.844;9.726;2023-04-15T05:57:27;78.63;;;14.40;;
54037;SDS011;39954;48.844;9.726;2023-04-15T05:58:32;155.35;;;22.42;;
54037;SDS011;39954;48.844;9.726;2023-04-15T05:59:34;88.00;;;15.68;;
54037;SDS011;39954;48.844;9.726;2023-04-15T06:00:39;93.55;;;17.55;;
54037;SDS011;39954;48.844;9.726;2023-04-15T06:01:41;71.72;;;13.93;;
54037;SDS011;39954;48.844;9.726;2023-04-15T06:02:46;69.45;;;12.05;;
54037;SDS011;39954;48.844;9.726;2023-04-15T06:03:51;68.10;;;13.95;;
54037;SDS011;39954;48.844;9.726;2023-04-15T06:04:54;61.80;;;11.57;;
54037;SDS011;39954;48.844;9.726;2023-04-15T06:05:58;70.13;;;12.35;;
54037;SDS011;39954;48.844;9.726;2023-04-15T06:07:01;84.70;;;13.18;;
54037;SDS011;39954;48.844;9.726;2023-04-15T06:08:06;92.38;;;13.98;;
54037;SDS011;39954;48.844;9.726;2023-04-15T06:09:08;83.75;;;12.63;;
54037;SDS011;39954;48.844;9.726;2023-04-15T06:10:13;89.00;;;13.73;;
54037;SDS011;39954;48.844;9.726;2023-04-15T06:11:15;89.85;;;13.98;;
54037;SDS011;39954;48.844;9.726;2023-04-15T06:12:24;71.13;;;12.00;;